sensor_id;sensor_type;location;lat;lon;timestamp;P1;durP1;ratioP1;P2;durP2;ratioP2
5585;SDS011;2815;54.094;12.112;2024-03-29T00:00:43;3.42;;;2.47;;
5585;SDS011;2815;54.094;12.112;2024-03-29T00:03:13;3.70;;;2.38;;
5585;SDS011;2815;54.094;12.112;2024-03-29T00:05:40;3.05;;;2.05;;
5585;SDS011;2815;54.094;12.112;2024-03-29T00:08:07;2.90;;;2.15;;
5585;SDS011;2815;54.094;12.112;2024-03-29T00:10:37;3.10;;;2.17;;
5585;SDS011;2815;54.094;12.112;2024-03-29T00:13:04;4.72;;;2.45;;
5585;SDS011;2815;54.094;12.112;2024-03-29T00:15:32;2.75;;;2.00;;
5585;SDS011;2815;54.094;12.112;2024-03-29T00:17:59;3.20;;;2.10;;
5585;SDS011;2815;54.094;12.112;2024-03-29T00:20:26;2.90;;;2.10;;
5585;SDS011;2815;54.094;12.112;2024-03-29T00:22:54;5.80;;;2.17;;
5585;SDS011;2815;54.094;12.112;2024-03-29T00:25:21;3.97;;;2.20;;
5585;SDS011;2815;54.094;12.112;2024-03-29T00:27:52;2.95;;;1.80;;
5585;SDS011;2815;54.094;12.112;2024-03-29T00:30:20;2.88;;;2.10;;
5585;SDS011;2815;54.094;12.112;2024-03-29T00:32:47;3.30;;;2.00;;
5585;SDS011;2815;54.094;12.112;2024-03-29T00:35:14;2.88;;;2.00;;
5585;SDS011;2815;54.094;12.112;2024-03-29T00:37:41;3.63;;;2.25;;
5585;SDS011;2815;54.094;12.112;2024-03-29T00:40:09;3.90;;;2.03;;
5585;SDS011;2815;54.094;12.112;2024-03-29T00:42:37;4.07;;;1.92;;
5585;SDS011;2815;54.094;12.112;2024-03-29T00:45:07;3.35;;;1.95;;
5585;SDS011;2815;54.094;12.112;2024-03-29T00:47:35;2.80;;;1.75;;
5585;SDS011;2815;54.094;12.112;2024-03-29T00:50:02;3.53;;;1.92;;
5585;SDS011;2815;54.094;12.112;2024-03-29T00:52:29;3.50;;;2.00;;
5585;SDS011;2815;54.094;12.112;2024-03-29T00:54:57;3.78;;;2.38;;
5585;SDS011;2815;54.094;12.112;2024-03-29T00:57:24;3.65;;;2.00;;
5585;SDS011;2815;54.094;12.112;2024-03-29T00:59:51;4.18;;;2.35;;
5585;SDS011;2815;54.094;12.112;2024-03-29T01:02:20;4.03;;;2.10;;
5585;SDS011;2815;54.094;12.112;2024-03-29T01:04:48;5.65;;;2.00;;
5585;SDS011;2815;54.094;12.112;2024-03-29T01:07:18;3.10;;;2.10;;
5585;SDS011;2815;54.094;12.112;2024-03-29T01:09:45;4.60;;;2.22;;
5585;SDS011;2815;54.094;12.112;2024-03-29T01:12:16;4.32;;;2.30;;
5585;SDS011;2815;54.094;12.112;2024-03-29T01:14:43;2.80;;;2.00;;
5585;SDS011;2815;54.094;12.112;2024-03-29T01:17:12;3.25;;;2.33;;
5585;SDS011;2815;54.094;12.112;2024-03-29T01:19:45;4.13;;;1.95;;
5585;SDS011;2815;54.094;12.112;2024-03-29T01:22:12;4.45;;;2.00;;
5585;SDS011;2815;54.094;12.112;2024-03-29T01:24:39;2.28;;;2.00;;
5585;SDS011;2815;54.094;12.112;2024-03-29T01:27:06;3.10;;;1.80;;
5585;SDS011;2815;54.094;12.112;2024-03-29T01:29:33;5.10;;;2.10;;
5585;SDS011;2815;54.094;12.112;2024-03-29T01:32:04;3.55;;;1.88;;
5585;SDS011;2815;54.094;12.112;2024-03-29T01:34:31;3.67;;;1.90;;
5585;SDS011;2815;54.094;12.112;2024-03-29T01:37:01;3.30;;;1.95;;
5585;SDS011;2815;54.094;12.112;2024-03-29T01:39:28;4.38;;;1.83;;
5585;SDS011;2815;54.094;12.112;2024-03-29T01:41:55;3.65;;;2.00;;
5585;SDS011;2815;54.094;12.112;2024-03-29T01:44:23;3.80;;;1.80;;
5585;SDS011;2815;54.094;12.112;2024-03-29T01:46:54;4.35;;;2.25;;
5585;SDS011;2815;54.094;12.112;2024-03-29T01:49:29;2.58;;;1.52;;
5585;SDS011;2815;54.094;12.112;2024-03-29T01:51:58;3.42;;;1.70;;
5585;SDS011;2815;54.094;12.112;2024-03-29T01:54:31;1.90;;;1.58;;
5585;SDS011;2815;54.094;12.112;2024-03-29T01:57:00;3.15;;;1.83;;
5585;SDS011;2815;54.094;12.112;2024-03-29T01:59:32;3.15;;;1.77;;
5585;SDS011;2815;54.094;12.112;2024-03-29T02:02:02;3.17;;;1.60;;
5585;SDS011;2815;54.094;12.112;2024-03-29T02:04:32;2.38;;;1.65;;
5585;SDS011;2815;54.094;12.112;2024-03-29T02:07:00;3.10;;;1.70;;
5585;SDS011;2815;54.094;12.112;2024-03-29T02:09:31;4.28;;;1.75;;
5585;SDS011;2815;54.094;12.112;2024-03-29T02:12:00;3.08;;;1.60;;
5585;SDS011;2815;54.094;12.112;2024-03-29T02:14:29;2.25;;;1.50;;
5585;SDS011;2815;54.094;12.112;2024-03-29T02:17:06;2.22;;;1.40;;
5585;SDS011;2815;54.094;12.112;2024-03-29T02:19:43;2.65;;;1.58;;
5585;SDS011;2815;54.094;12.112;2024-03-29T02:22:15;3.63;;;1.50;;
5585;SDS011;2815;54.094;12.112;2024-03-29T02:24:47;4.22;;;1.65;;
5585;SDS011;2815;54.094;12.112;2024-03-29T02:27:20;2.80;;;1.58;;
5585;SDS011;2815;54.094;12.112;2024-03-29T02:29:49;1.75;;;1.40;;
5585;SDS011;2815;54.094;12.112;2024-03-29T02:32:16;2.97;;;1.80;;
5585;SDS011;2815;54.094;12.112;2024-03-29T02:34:45;2.95;;;1.63;;
5585;SDS011;2815;54.094;12.112;2024-03-29T02:37:12;3.97;;;1.70;;
5585;SDS011;2815;54.094;12.112;2024-03-29T02:39:42;2.72;;;1.75;;
5585;SDS011;2815;54.094;12.112;2024-03-29T02:42:14;2.83;;;1.50;;
5585;SDS011;2815;54.094;12.112;2024-03-29T02:44:46;2.17;;;1.42;;
5585;SDS011;2815;54.094;12.112;2024-03-29T02:47:17;5.20;;;1.25;;
5585;SDS011;2815;54.094;12.112;2024-03-29T02:49:50;1.90;;;1.30;;
5585;SDS011;2815;54.094;12.112;2024-03-29T02:52:17;5.07;;;1.25;;
5585;SDS011;2815;54.094;12.112;2024-03-29T02:54:45;4.05;;;1.48;;
5585;SDS011;2815;54.094;12.112;2024-03-29T02:57:14;2.20;;;1.30;;
5585;SDS011;2815;54.094;12.112;2024-03-29T02:59:42;2.00;;;1.33;;
5585;SDS011;2815;54.094;12.112;2024-03-29T03:02:09;2.22;;;1.20;;
5585;SDS011;2815;54.094;12.112;2024-03-29T03:04:41;1.77;;;1.30;;
5585;SDS011;2815;54.094;12.112;2024-03-29T03:07:08;2.10;;;1.40;;
5585;SDS011;2815;54.094;12.112;2024-03-29T03:09:56;2.53;;;1.65;;
5585;SDS011;2815;54.094;12.112;2024-03-29T03:12:47;2.28;;;1.33;;
5585;SDS011;2815;54.094;12.112;2024-03-29T03:15:16;1.80;;;1.27;;
5585;SDS011;2815;54.094;12.112;2024-03-29T03:17:47;3.40;;;1.45;;
5585;SDS011;2815;54.094;12.112;2024-03-29T03:20:15;2.10;;;1.20;;
5585;SDS011;2815;54.094;12.112;2024-03-29T03:22:43;3.50;;;1.20;;
5585;SDS011;2815;54.094;12.112;2024-03-29T03:25:17;1.55;;;1.17;;
5585;SDS011;2815;54.094;12.112;2024-03-29T03:31:35;1.98;;;1.10;;
5585;SDS011;2815;54.094;12.112;2024-03-29T03:38:06;0.80;;;0.70;;
5585;SDS011;2815;54.094;12.112;2024-03-29T04:17:00;2.35;;;1.25;;
5585;SDS011;2815;54.094;12.112;2024-03-29T04:19:32;1.20;;;0.90;;
5585;SDS011;2815;54.094;12.112;2024-03-29T04:21:58;3.92;;;1.13;;
5585;SDS011;2815;54.094;12.112;2024-03-29T04:24:27;1.60;;;0.88;;
5585;SDS011;2815;54.094;12.112;2024-03-29T04:26:54;0.80;;;0.80;;
5585;SDS011;2815;54.094;12.112;2024-03-29T04:29:23;3.35;;;0.93;;
5585;SDS011;2815;54.094;12.112;2024-03-29T04:31:51;4.40;;;1.42;;
5585;SDS011;2815;54.094;12.112;2024-03-29T04:34:25;1.23;;;0.95;;
5585;SDS011;2815;54.094;12.112;2024-03-29T04:36:52;2.65;;;1.00;;
5585;SDS011;2815;54.094;12.112;2024-03-29T04:39:22;1.35;;;0.82;;
5585;SDS011;2815;54.094;12.112;2024-03-29T04:41:50;2.35;;;0.95;;
5585;SDS011;2815;54.094;12.112;2024-03-29T04:44:23;4.43;;;0.90;;
5585;SDS011;2815;54.094;12.112;2024-03-29T04:46:51;1.95;;;0.73;;
5585;SDS011;2815;54.094;12.112;2024-03-29T04:49:21;1.30;;;0.90;;
5585;SDS011;2815;54.094;12.112;2024-03-29T04:51:58;2.08;;;1.13;;
5585;SDS011;2815;54.094;12.112;2024-03-29T04:54:27;1.83;;;0.95;;
5585;SDS011;2815;54.094;12.112;2024-03-29T04:57:02;1.27;;;0.95;;
5585;SDS011;2815;54.094;12.112;2024-03-29T04:59:32;1.77;;;0.80;;
5585;SDS011;2815;54.094;12.112;2024-03-29T05:02:00;0.77;;;0.77;;
5585;SDS011;2815;54.094;12.112;2024-03-29T05:04:30;3.95;;;1.02;;
5585;SDS011;2815;54.094;12.112;2024-03-29T05:07:03;2.55;;;1.05;;
5585;SDS011;2815;54.094;12.112;2024-03-29T05:09:31;4.22;;;1.05;;
5585;SDS011;2815;54.094;12.112;2024-03-29T05:12:04;1.20;;;1.00;;
5585;SDS011;2815;54.094;12.112;2024-03-29T05:14:38;0.90;;;0.70;;
5585;SDS011;2815;54.094;12.112;2024-03-29T05:17:07;0.88;;;0.73;;
5585;SDS011;2815;54.094;12.112;2024-03-29T05:19:35;1.85;;;1.02;;
5585;SDS011;2815;54.094;12.112;2024-03-29T05:22:11;1.63;;;0.95;;
5585;SDS011;2815;54.094;12.112;2024-03-29T05:24:39;3.95;;;0.70;;
5585;SDS011;2815;54.094;12.112;2024-03-29T05:27:08;4.38;;;1.10;;
5585;SDS011;2815;54.094;12.112;2024-03-29T05:29:39;1.48;;;0.80;;
5585;SDS011;2815;54.094;12.112;2024-03-29T05:32:08;1.42;;;0.80;;
5585;SDS011;2815;54.094;12.112;2024-03-29T05:34:37;3.38;;;1.00;;
5585;SDS011;2815;54.094;12.112;2024-03-29T05:39:45;1.55;;;0.80;;
5585;SDS011;2815;54.094;12.112;2024-03-29T05:54:30;2.28;;;1.00;;
5585;SDS011;2815;54.094;12.112;2024-03-29T05:56:58;7.35;;;1.13;;
5585;SDS011;2815;54.094;12.112;2024-03-29T05:59:26;1.80;;;1.15;;
5585;SDS011;2815;54.094;12.112;2024-03-29T06:01:56;3.13;;;0.68;;
5585;SDS011;2815;54.094;12.112;2024-03-29T06:04:25;1.77;;;1.05;;
5585;SDS011;2815;54.094;12.112;2024-03-29T06:06:58;4.25;;;1.23;;
5585;SDS011;2815;54.094;12.112;2024-03-29T06:09:33;1.25;;;0.77;;
5585;SDS011;2815;54.094;12.112;2024-03-29T06:12:04;4.85;;;1.10;;
5585;SDS011;2815;54.094;12.112;2024-03-29T06:14:33;1.08;;;0.88;;
5585;SDS011;2815;54.094;12.112;2024-03-29T06:17:20;1.55;;;0.68;;
5585;SDS011;2815;54.094;12.112;2024-03-29T06:19:55;4.57;;;1.35;;
5585;SDS011;2815;54.094;12.112;2024-03-29T06:22:26;3.40;;;0.93;;
5585;SDS011;2815;54.094;12.112;2024-03-29T06:24:59;3.45;;;1.00;;
5585;SDS011;2815;54.094;12.112;2024-03-29T06:27:32;3.47;;;1.30;;
5585;SDS011;2815;54.094;12.112;2024-03-29T06:30:01;1.95;;;1.02;;
5585;SDS011;2815;54.094;12.112;2024-03-29T06:32:32;2.20;;;1.27;;
5585;SDS011;2815;54.094;12.112;2024-03-29T06:35:00;4.90;;;1.05;;
5585;SDS011;2815;54.094;12.112;2024-03-29T06:37:28;3.25;;;1.00;;
5585;SDS011;2815;54.094;12.112;2024-03-29T06:39:58;1.42;;;0.90;;
5585;SDS011;2815;54.094;12.112;2024-03-29T06:42:28;1.30;;;0.88;;
5585;SDS011;2815;54.094;12.112;2024-03-29T06:44:56;1.35;;;0.95;;
5585;SDS011;2815;54.094;12.112;2024-03-29T06:47:24;2.47;;;1.00;;
5585;SDS011;2815;54.094;12.112;2024-03-29T06:49:55;2.95;;;1.35;;
5585;SDS011;2815;54.094;12.112;2024-03-29T06:52:23;3.00;;;1.17;;
5585;SDS011;2815;54.094;12.112;2024-03-29T06:54:51;4.05;;;1.23;;
5585;SDS011;2815;54.094;12.112;2024-03-29T06:57:24;3.67;;;0.85;;
5585;SDS011;2815;54.094;12.112;2024-03-29T06:59:58;1.75;;;0.88;;
5585;SDS011;2815;54.094;12.112;2024-03-29T07:02:31;2.92;;;1.15;;
5585;SDS011;2815;54.094;12.112;2024-03-29T07:05:00;1.70;;;1.17;;
5585;SDS011;2815;54.094;12.112;2024-03-29T07:07:33;4.07;;;1.15;;
5585;SDS011;2815;54.094;12.112;2024-03-29T07:10:09;2.75;;;1.23;;
5585;SDS011;2815;54.094;12.112;2024-03-29T07:12:39;2.67;;;1.20;;
5585;SDS011;2815;54.094;12.112;2024-03-29T07:15:20;1.73;;;0.93;;
5585;SDS011;2815;54.094;12.112;2024-03-29T07:17:48;4.93;;;1.55;;
5585;SDS011;2815;54.094;12.112;2024-03-29T07:20:18;4.47;;;1.23;;
5585;SDS011;2815;54.094;12.112;2024-03-29T07:22:48;5.38;;;1.50;;
5585;SDS011;2815;54.094;12.112;2024-03-29T07:25:22;7.68;;;1.30;;
5585;SDS011;2815;54.094;12.112;2024-03-29T07:27:57;2.80;;;1.05;;
5585;SDS011;2815;54.094;12.112;2024-03-29T07:30:26;1.70;;;1.20;;
5585;SDS011;2815;54.094;12.112;2024-03-29T07:32:55;2.22;;;1.33;;
5585;SDS011;2815;54.094;12.112;2024-03-29T07:35:22;2.55;;;1.25;;
5585;SDS011;2815;54.094;12.112;2024-03-29T07:37:50;2.35;;;0.80;;
5585;SDS011;2815;54.094;12.112;2024-03-29T07:40:19;1.83;;;1.05;;
5585;SDS011;2815;54.094;12.112;2024-03-29T07:49:31;4.57;;;1.50;;
5585;SDS011;2815;54.094;12.112;2024-03-29T07:51:59;4.35;;;0.95;;
5585;SDS011;2815;54.094;12.112;2024-03-29T07:54:32;3.33;;;1.33;;
5585;SDS011;2815;54.094;12.112;2024-03-29T07:57:02;6.80;;;1.38;;
5585;SDS011;2815;54.094;12.112;2024-03-29T07:59:30;1.70;;;1.08;;
5585;SDS011;2815;54.094;12.112;2024-03-29T08:02:00;1.70;;;0.82;;
5585;SDS011;2815;54.094;12.112;2024-03-29T08:04:30;2.58;;;1.05;;
5585;SDS011;2815;54.094;12.112;2024-03-29T08:06:58;1.40;;;0.60;;
5585;SDS011;2815;54.094;12.112;2024-03-29T08:09:28;3.38;;;0.73;;
5585;SDS011;2815;54.094;12.112;2024-03-29T08:12:00;5.23;;;1.40;;
5585;SDS011;2815;54.094;12.112;2024-03-29T08:14:35;5.55;;;1.30;;
5585;SDS011;2815;54.094;12.112;2024-03-29T08:17:03;2.22;;;1.13;;
5585;SDS011;2815;54.094;12.112;2024-03-29T08:19:54;2.35;;;0.95;;
5585;SDS011;2815;54.094;12.112;2024-03-29T08:22:21;2.75;;;1.17;;
5585;SDS011;2815;54.094;12.112;2024-03-29T08:24:49;3.92;;;1.23;;
5585;SDS011;2815;54.094;12.112;2024-03-29T08:27:17;5.35;;;1.30;;
5585;SDS011;2815;54.094;12.112;2024-03-29T08:35:55;5.78;;;1.33;;
5585;SDS011;2815;54.094;12.112;2024-03-29T08:38:24;3.78;;;0.95;;
5585;SDS011;2815;54.094;12.112;2024-03-29T08:40:52;1.70;;;0.90;;
5585;SDS011;2815;54.094;12.112;2024-03-29T08:43:20;3.05;;;1.10;;
5585;SDS011;2815;54.094;12.112;2024-03-29T08:45:52;2.97;;;1.37;;
5585;SDS011;2815;54.094;12.112;2024-03-29T08:48:22;1.73;;;1.00;;
5585;SDS011;2815;54.094;12.112;2024-03-29T08:50:51;1.67;;;0.80;;
5585;SDS011;2815;54.094;12.112;2024-03-29T08:53:23;1.67;;;1.00;;
5585;SDS011;2815;54.094;12.112;2024-03-29T08:55:53;3.92;;;1.20;;
5585;SDS011;2815;54.094;12.112;2024-03-29T08:58:23;3.88;;;1.27;;
5585;SDS011;2815;54.094;12.112;2024-03-29T09:00:52;2.15;;;1.00;;
5585;SDS011;2815;54.094;12.112;2024-03-29T09:03:20;2.25;;;1.08;;
5585;SDS011;2815;54.094;12.112;2024-03-29T09:05:48;2.35;;;0.93;;
5585;SDS011;2815;54.094;12.112;2024-03-29T09:08:17;2.47;;;0.73;;
5585;SDS011;2815;54.094;12.112;2024-03-29T09:10:49;3.13;;;1.13;;
5585;SDS011;2815;54.094;12.112;2024-03-29T09:13:18;2.58;;;1.00;;
5585;SDS011;2815;54.094;12.112;2024-03-29T09:15:47;4.55;;;1.23;;
5585;SDS011;2815;54.094;12.112;2024-03-29T09:18:17;2.97;;;1.00;;
5585;SDS011;2815;54.094;12.112;2024-03-29T09:20:57;0.90;;;0.63;;
5585;SDS011;2815;54.094;12.112;2024-03-29T09:23:30;2.25;;;0.90;;
5585;SDS011;2815;54.094;12.112;2024-03-29T09:26:03;4.03;;;1.27;;
5585;SDS011;2815;54.094;12.112;2024-03-29T09:28:32;3.97;;;0.95;;
5585;SDS011;2815;54.094;12.112;2024-03-29T09:31:02;1.77;;;1.00;;
5585;SDS011;2815;54.094;12.112;2024-03-29T09:33:31;1.90;;;0.88;;
5585;SDS011;2815;54.094;12.112;2024-03-29T09:35:59;1.40;;;1.00;;
5585;SDS011;2815;54.094;12.112;2024-03-29T09:38:29;1.42;;;1.00;;
5585;SDS011;2815;54.094;12.112;2024-03-29T09:40:59;3.60;;;0.70;;
5585;SDS011;2815;54.094;12.112;2024-03-29T09:43:34;2.28;;;0.85;;
5585;SDS011;2815;54.094;12.112;2024-03-29T09:46:03;3.35;;;0.63;;
5585;SDS011;2815;54.094;12.112;2024-03-29T09:48:32;2.80;;;0.70;;
5585;SDS011;2815;54.094;12.112;2024-03-29T09:51:29;1.88;;;0.70;;
5585;SDS011;2815;54.094;12.112;2024-03-29T09:53:57;3.83;;;1.23;;
5585;SDS011;2815;54.094;12.112;2024-03-29T09:56:31;3.05;;;1.10;;
5585;SDS011;2815;54.094;12.112;2024-03-29T09:59:00;3.03;;;1.08;;
5585;SDS011;2815;54.094;12.112;2024-03-29T10:01:30;2.10;;;0.70;;
5585;SDS011;2815;54.094;12.112;2024-03-29T10:03:59;4.18;;;1.35;;
5585;SDS011;2815;54.094;12.112;2024-03-29T10:06:29;2.65;;;0.98;;
5585;SDS011;2815;54.094;12.112;2024-03-29T10:08:57;1.75;;;0.60;;
5585;SDS011;2815;54.094;12.112;2024-03-29T10:11:25;1.50;;;0.82;;
5585;SDS011;2815;54.094;12.112;2024-03-29T10:13:56;4.10;;;0.85;;
5585;SDS011;2815;54.094;12.112;2024-03-29T10:16:24;2.00;;;0.90;;
5585;SDS011;2815;54.094;12.112;2024-03-29T10:18:59;1.85;;;0.80;;
5585;SDS011;2815;54.094;12.112;2024-03-29T10:21:31;0.70;;;0.40;;
5585;SDS011;2815;54.094;12.112;2024-03-29T10:24:11;1.58;;;0.73;;
5585;SDS011;2815;54.094;12.112;2024-03-29T10:30:21;1.83;;;0.82;;
5585;SDS011;2815;54.094;12.112;2024-03-29T10:33:21;2.17;;;0.80;;
5585;SDS011;2815;54.094;12.112;2024-03-29T10:36:00;0.50;;;0.50;;
5585;SDS011;2815;54.094;12.112;2024-03-29T10:39:09;1.67;;;0.80;;
5585;SDS011;2815;54.094;12.112;2024-03-29T10:41:40;3.50;;;0.70;;
5585;SDS011;2815;54.094;12.112;2024-03-29T10:44:19;3.10;;;0.98;;
5585;SDS011;2815;54.094;12.112;2024-03-29T10:46:50;2.03;;;0.80;;
5585;SDS011;2815;54.094;12.112;2024-03-29T10:49:19;1.10;;;0.60;;
5585;SDS011;2815;54.094;12.112;2024-03-29T10:51:47;1.48;;;0.73;;
5585;SDS011;2815;54.094;12.112;2024-03-29T10:54:17;4.40;;;0.65;;
5585;SDS011;2815;54.094;12.112;2024-03-29T10:56:47;1.42;;;0.77;;
5585;SDS011;2815;54.094;12.112;2024-03-29T10:59:32;1.60;;;0.70;;
5585;SDS011;2815;54.094;12.112;2024-03-29T11:02:16;5.25;;;1.00;;
5585;SDS011;2815;54.094;12.112;2024-03-29T11:05:12;3.42;;;0.98;;
5585;SDS011;2815;54.094;12.112;2024-03-29T11:07:42;1.00;;;0.57;;
5585;SDS011;2815;54.094;12.112;2024-03-29T11:10:13;5.75;;;1.00;;
5585;SDS011;2815;54.094;12.112;2024-03-29T11:12:46;3.75;;;1.13;;
5585;SDS011;2815;54.094;12.112;2024-03-29T11:15:22;1.92;;;0.73;;
5585;SDS011;2815;54.094;12.112;2024-03-29T11:17:57;1.90;;;0.93;;
5585;SDS011;2815;54.094;12.112;2024-03-29T11:20:26;5.18;;;1.00;;
5585;SDS011;2815;54.094;12.112;2024-03-29T11:23:02;0.75;;;0.43;;
5585;SDS011;2815;54.094;12.112;2024-03-29T11:25:38;5.00;;;1.25;;
5585;SDS011;2815;54.094;12.112;2024-03-29T11:28:08;4.18;;;1.00;;
5585;SDS011;2815;54.094;12.112;2024-03-29T11:30:41;1.45;;;0.85;;
5585;SDS011;2815;54.094;12.112;2024-03-29T11:33:43;2.28;;;1.30;;
5585;SDS011;2815;54.094;12.112;2024-03-29T11:36:15;2.05;;;0.82;;
5585;SDS011;2815;54.094;12.112;2024-03-29T11:38:45;1.17;;;0.73;;
5585;SDS011;2815;54.094;12.112;2024-03-29T11:41:15;2.33;;;0.52;;
5585;SDS011;2815;54.094;12.112;2024-03-29T11:43:44;5.20;;;0.73;;
5585;SDS011;2815;54.094;12.112;2024-03-29T11:46:28;0.77;;;0.50;;
5585;SDS011;2815;54.094;12.112;2024-03-29T11:54:47;0.93;;;0.80;;
5585;SDS011;2815;54.094;12.112;2024-03-29T11:57:24;4.82;;;1.00;;
5585;SDS011;2815;54.094;12.112;2024-03-29T11:59:51;1.25;;;0.65;;
5585;SDS011;2815;54.094;12.112;2024-03-29T12:05:33;1.73;;;0.45;;
5585;SDS011;2815;54.094;12.112;2024-03-29T12:08:02;3.40;;;0.68;;
5585;SDS011;2815;54.094;12.112;2024-03-29T12:10:34;2.78;;;1.20;;
5585;SDS011;2815;54.094;12.112;2024-03-29T12:13:04;1.55;;;0.80;;
5585;SDS011;2815;54.094;12.112;2024-03-29T12:15:33;2.67;;;0.90;;
5585;SDS011;2815;54.094;12.112;2024-03-29T12:18:02;1.40;;;0.90;;
5585;SDS011;2815;54.094;12.112;2024-03-29T12:20:38;1.98;;;0.98;;
5585;SDS011;2815;54.094;12.112;2024-03-29T12:23:52;3.17;;;0.90;;
5585;SDS011;2815;54.094;12.112;2024-03-29T12:33:01;3.22;;;0.85;;
5585;SDS011;2815;54.094;12.112;2024-03-29T12:35:29;1.13;;;0.60;;
5585;SDS011;2815;54.094;12.112;2024-03-29T12:38:22;2.78;;;1.40;;
5585;SDS011;2815;54.094;12.112;2024-03-29T12:44:19;2.90;;;1.00;;
5585;SDS011;2815;54.094;12.112;2024-03-29T12:46:46;3.78;;;0.90;;
5585;SDS011;2815;54.094;12.112;2024-03-29T12:49:26;2.88;;;0.90;;
5585;SDS011;2815;54.094;12.112;2024-03-29T12:51:55;0.93;;;0.75;;
5585;SDS011;2815;54.094;12.112;2024-03-29T12:54:49;1.50;;;1.00;;
5585;SDS011;2815;54.094;12.112;2024-03-29T12:57:16;5.70;;;0.88;;
5585;SDS011;2815;54.094;12.112;2024-03-29T12:59:48;3.22;;;1.45;;
5585;SDS011;2815;54.094;12.112;2024-03-29T13:02:22;3.40;;;0.93;;
5585;SDS011;2815;54.094;12.112;2024-03-29T13:04:58;1.40;;;0.82;;
5585;SDS011;2815;54.094;12.112;2024-03-29T13:07:44;1.75;;;0.95;;
5585;SDS011;2815;54.094;12.112;2024-03-29T13:10:11;1.88;;;1.10;;
5585;SDS011;2815;54.094;12.112;2024-03-29T13:12:42;1.13;;;0.80;;
5585;SDS011;2815;54.094;12.112;2024-03-29T13:15:17;3.67;;;1.17;;
5585;SDS011;2815;54.094;12.112;2024-03-29T13:17:46;3.40;;;1.10;;
5585;SDS011;2815;54.094;12.112;2024-03-29T13:20:15;1.13;;;0.95;;
5585;SDS011;2815;54.094;12.112;2024-03-29T13:22:43;3.17;;;1.15;;
5585;SDS011;2815;54.094;12.112;2024-03-29T13:25:13;1.90;;;0.90;;
5585;SDS011;2815;54.094;12.112;2024-03-29T13:27:41;3.97;;;1.13;;
5585;SDS011;2815;54.094;12.112;2024-03-29T13:30:10;1.52;;;1.20;;
5585;SDS011;2815;54.094;12.112;2024-03-29T13:32:45;3.58;;;1.33;;
5585;SDS011;2815;54.094;12.112;2024-03-29T13:35:14;2.25;;;1.00;;
5585;SDS011;2815;54.094;12.112;2024-03-29T13:37:48;1.75;;;1.08;;
5585;SDS011;2815;54.094;12.112;2024-03-29T13:40:24;1.55;;;1.00;;
5585;SDS011;2815;54.094;12.112;2024-03-29T13:42:52;1.60;;;1.08;;
5585;SDS011;2815;54.094;12.112;2024-03-29T13:45:23;1.52;;;0.90;;
5585;SDS011;2815;54.094;12.112;2024-03-29T13:47:53;2.45;;;1.00;;
5585;SDS011;2815;54.094;12.112;2024-03-29T13:50:25;2.30;;;1.08;;
5585;SDS011;2815;54.094;12.112;2024-03-29T13:52:54;1.67;;;0.80;;
5585;SDS011;2815;54.094;12.112;2024-03-29T13:55:22;3.22;;;1.20;;
5585;SDS011;2815;54.094;12.112;2024-03-29T13:57:51;2.13;;;1.10;;
5585;SDS011;2815;54.094;12.112;2024-03-29T14:00:21;2.15;;;1.25;;
5585;SDS011;2815;54.094;12.112;2024-03-29T14:02:58;3.72;;;1.15;;
5585;SDS011;2815;54.094;12.112;2024-03-29T14:05:26;1.52;;;1.05;;
5585;SDS011;2815;54.094;12.112;2024-03-29T14:07:56;2.15;;;1.00;;
5585;SDS011;2815;54.094;12.112;2024-03-29T14:10:28;2.00;;;0.98;;
5585;SDS011;2815;54.094;12.112;2024-03-29T14:12:56;3.17;;;1.00;;
5585;SDS011;2815;54.094;12.112;2024-03-29T14:15:26;2.05;;;0.95;;
5585;SDS011;2815;54.094;12.112;2024-03-29T14:17:55;1.48;;;0.90;;
5585;SDS011;2815;54.094;12.112;2024-03-29T14:20:30;2.17;;;1.23;;
5585;SDS011;2815;54.094;12.112;2024-03-29T14:23:00;1.52;;;0.82;;
5585;SDS011;2815;54.094;12.112;2024-03-29T14:25:32;2.63;;;1.27;;
5585;SDS011;2815;54.094;12.112;2024-03-29T14:28:02;2.28;;;0.90;;
5585;SDS011;2815;54.094;12.112;2024-03-29T14:30:32;1.73;;;0.95;;
5585;SDS011;2815;54.094;12.112;2024-03-29T14:33:06;2.05;;;1.20;;
5585;SDS011;2815;54.094;12.112;2024-03-29T14:35:35;2.70;;;1.20;;
5585;SDS011;2815;54.094;12.112;2024-03-29T14:38:05;2.25;;;1.15;;
5585;SDS011;2815;54.094;12.112;2024-03-29T14:40:37;3.42;;;1.23;;
5585;SDS011;2815;54.094;12.112;2024-03-29T14:43:05;2.70;;;1.40;;
5585;SDS011;2815;54.094;12.112;2024-03-29T14:45:36;0.98;;;0.80;;
5585;SDS011;2815;54.094;12.112;2024-03-29T14:48:09;2.95;;;1.15;;
5585;SDS011;2815;54.094;12.112;2024-03-29T14:50:38;2.78;;;1.40;;
5585;SDS011;2815;54.094;12.112;2024-03-29T14:53:15;2.35;;;0.98;;
5585;SDS011;2815;54.094;12.112;2024-03-29T14:55:45;2.40;;;1.00;;
5585;SDS011;2815;54.094;12.112;2024-03-29T14:58:13;0.70;;;0.70;;
5585;SDS011;2815;54.094;12.112;2024-03-29T15:00:43;1.90;;;0.90;;
5585;SDS011;2815;54.094;12.112;2024-03-29T15:03:14;2.55;;;1.45;;
5585;SDS011;2815;54.094;12.112;2024-03-29T15:05:42;1.52;;;1.17;;
5585;SDS011;2815;54.094;12.112;2024-03-29T15:08:12;2.72;;;0.98;;
5585;SDS011;2815;54.094;12.112;2024-03-29T15:10:44;1.50;;;0.90;;
5585;SDS011;2815;54.094;12.112;2024-03-29T15:13:12;3.97;;;1.10;;
5585;SDS011;2815;54.094;12.112;2024-03-29T15:15:40;0.73;;;0.63;;
5585;SDS011;2815;54.094;12.112;2024-03-29T15:18:15;1.30;;;0.85;;
5585;SDS011;2815;54.094;12.112;2024-03-29T15:20:43;2.13;;;1.00;;
5585;SDS011;2815;54.094;12.112;2024-03-29T15:23:34;1.65;;;0.90;;
5585;SDS011;2815;54.094;12.112;2024-03-29T15:26:50;2.75;;;1.00;;
5585;SDS011;2815;54.094;12.112;2024-03-29T15:29:34;1.63;;;1.10;;
5585;SDS011;2815;54.094;12.112;2024-03-29T15:32:02;1.70;;;0.88;;
5585;SDS011;2815;54.094;12.112;2024-03-29T15:37:25;2.00;;;1.05;;
5585;SDS011;2815;54.094;12.112;2024-03-29T15:39:54;1.52;;;1.02;;
5585;SDS011;2815;54.094;12.112;2024-03-29T15:42:23;2.92;;;1.17;;
5585;SDS011;2815;54.094;12.112;2024-03-29T15:44:52;1.85;;;1.30;;
5585;SDS011;2815;54.094;12.112;2024-03-29T15:47:20;1.83;;;1.00;;
5585;SDS011;2815;54.094;12.112;2024-03-29T15:49:49;1.92;;;1.23;;
5585;SDS011;2815;54.094;12.112;2024-03-29T15:52:21;2.85;;;1.45;;
5585;SDS011;2815;54.094;12.112;2024-03-29T15:59:19;2.85;;;1.70;;
5585;SDS011;2815;54.094;12.112;2024-03-29T16:37:43;2.60;;;1.63;;
5585;SDS011;2815;54.094;12.112;2024-03-29T16:40:16;2.60;;;1.90;;
5585;SDS011;2815;54.094;12.112;2024-03-29T16:42:43;2.47;;;1.58;;
5585;SDS011;2815;54.094;12.112;2024-03-29T16:45:16;4.68;;;1.88;;
5585;SDS011;2815;54.094;12.112;2024-03-29T16:47:43;3.95;;;1.90;;
5585;SDS011;2815;54.094;12.112;2024-03-29T16:50:11;2.60;;;1.60;;
5585;SDS011;2815;54.094;12.112;2024-03-29T16:52:48;2.78;;;1.60;;
5585;SDS011;2815;54.094;12.112;2024-03-29T17:38:12;3.67;;;1.80;;
5585;SDS011;2815;54.094;12.112;2024-03-29T17:41:12;3.85;;;1.85;;
5585;SDS011;2815;54.094;12.112;2024-03-29T17:43:55;3.97;;;2.15;;
5585;SDS011;2815;54.094;12.112;2024-03-29T17:46:30;3.55;;;1.90;;
5585;SDS011;2815;54.094;12.112;2024-03-29T17:49:32;4.03;;;1.95;;
5585;SDS011;2815;54.094;12.112;2024-03-29T17:52:05;4.28;;;2.42;;
5585;SDS011;2815;54.094;12.112;2024-03-29T17:54:38;3.55;;;2.25;;
5585;SDS011;2815;54.094;12.112;2024-03-29T17:57:07;4.15;;;2.30;;
5585;SDS011;2815;54.094;12.112;2024-03-29T17:59:34;3.47;;;2.22;;
5585;SDS011;2815;54.094;12.112;2024-03-29T18:02:03;5.93;;;2.58;;
5585;SDS011;2815;54.094;12.112;2024-03-29T18:04:32;3.83;;;2.55;;
5585;SDS011;2815;54.094;12.112;2024-03-29T18:07:02;4.13;;;2.45;;
5585;SDS011;2815;54.094;12.112;2024-03-29T18:09:31;4.07;;;2.20;;
5585;SDS011;2815;54.094;12.112;2024-03-29T18:12:04;4.70;;;2.80;;
5585;SDS011;2815;54.094;12.112;2024-03-29T18:14:40;5.18;;;2.65;;
5585;SDS011;2815;54.094;12.112;2024-03-29T18:17:13;5.35;;;2.50;;
5585;SDS011;2815;54.094;12.112;2024-03-29T18:19:40;5.05;;;2.42;;
5585;SDS011;2815;54.094;12.112;2024-03-29T18:22:08;7.15;;;3.22;;
5585;SDS011;2815;54.094;12.112;2024-03-29T18:24:41;6.90;;;2.80;;
5585;SDS011;2815;54.094;12.112;2024-03-29T18:27:10;6.63;;;2.70;;